createdAt,value
2019-06-01T00:02:25.074Z,1.45
2019-06-01T00:04:56.807Z,1.45
2019-06-01T00:07:28.787Z,1.20
2019-06-01T00:10:00.712Z,1.62
2019-06-01T00:15:03.333Z,1.35
2019-06-01T00:17:34.986Z,1.32
2019-06-01T00:20:06.777Z,3.00
2019-06-01T00:25:09.372Z,1.60
2019-06-01T00:27:41.054Z,2.02
2019-06-01T00:30:26.160Z,2.80
2019-06-01T00:32:47.319Z,1.30
2019-06-01T00:35:18.998Z,1.42
2019-06-01T00:37:51.769Z,1.12
2019-06-01T00:40:23.754Z,1.57
2019-06-01T00:45:26.289Z,1.50
2019-06-01T00:47:58.292Z,1.50
2019-06-01T00:50:30.030Z,1.22
2019-06-01T00:53:01.757Z,1.17
2019-06-01T00:58:04.286Z,2.30
2019-06-01T01:00:43.843Z,1.15
2019-06-01T01:03:09.328Z,1.20
2019-06-01T01:05:41.055Z,1.87
2019-06-01T01:08:12.766Z,1.60
2019-06-01T01:13:19.697Z,1.15
2019-06-01T01:18:23.357Z,2.25
2019-06-01T01:20:56.161Z,1.40
2019-06-01T01:23:28.361Z,1.70
2019-06-01T01:26:00.137Z,1.10
2019-06-01T01:28:31.800Z,1.32
2019-06-01T01:31:13.468Z,1.25
2019-06-01T01:33:36.954Z,1.50
2019-06-01T01:36:08.776Z,1.40
2019-06-01T01:38:40.340Z,1.30
2019-06-01T01:41:12.399Z,1.92
2019-06-01T01:43:44.322Z,1.10
2019-06-01T01:46:15.858Z,1.02
2019-06-01T01:48:47.734Z,1.40
2019-06-01T01:53:50.611Z,1.65
2019-06-01T01:56:23.095Z,1.47
2019-06-01T01:58:54.762Z,1.27
2019-06-01T02:03:57.444Z,1.20
2019-06-01T02:06:29.535Z,1.37
2019-06-01T02:11:33.662Z,1.35
2019-06-01T02:14:05.763Z,1.45
2019-06-01T02:19:08.435Z,1.50
2019-06-01T02:21:40.310Z,1.22
2019-06-01T02:24:11.961Z,1.40
2019-06-01T02:26:43.722Z,1.35
2019-06-01T02:31:46.740Z,1.30
2019-06-01T02:34:18.362Z,1.80
2019-06-01T02:36:50.057Z,1.30
2019-06-01T02:39:21.795Z,1.17
2019-06-01T02:41:54.913Z,1.40
2019-06-01T02:44:26.761Z,1.47
2019-06-01T02:46:59.496Z,1.30
2019-06-01T02:52:03.461Z,1.10
2019-06-01T02:54:35.358Z,1.40
2019-06-01T02:57:07.053Z,1.47
2019-06-01T02:59:38.696Z,1.30
2019-06-01T03:04:43.226Z,1.25
2019-06-01T03:07:14.874Z,1.17
2019-06-01T03:09:46.406Z,1.22
2019-06-01T03:12:19.221Z,1.30
2019-06-01T03:14:50.701Z,1.35
2019-06-01T03:19:53.477Z,1.17
2019-06-01T03:22:25.258Z,1.30
2019-06-01T03:24:56.865Z,1.00
2019-06-01T03:27:28.529Z,1.52
2019-06-01T03:30:00.755Z,1.20
2019-06-01T03:32:36.563Z,1.10
2019-06-01T03:35:06.779Z,1.22
2019-06-01T03:37:38.380Z,1.30
2019-06-01T03:40:19.724Z,1.40
2019-06-01T03:42:43.766Z,1.20
2019-06-01T03:47:46.709Z,1.20
2019-06-01T03:52:49.405Z,1.27
2019-06-01T03:55:21.062Z,1.35
2019-06-01T03:57:53.055Z,1.40
2019-06-01T04:00:24.737Z,0.95
2019-06-01T04:05:27.298Z,1.10
2019-06-01T04:07:58.929Z,1.10
2019-06-01T04:10:30.761Z,1.20
2019-06-01T04:15:33.307Z,1.15
2019-06-01T04:18:06.063Z,1.57
2019-06-01T04:20:37.837Z,1.30
2019-06-01T04:23:10.218Z,1.20
2019-06-01T04:25:41.783Z,1.00
2019-06-01T04:28:13.740Z,1.10
2019-06-01T04:30:45.297Z,1.90
2019-06-01T04:33:17.221Z,1.10
2019-06-01T04:35:48.671Z,2.02
2019-06-01T04:40:51.474Z,1.37
2019-06-01T04:43:22.977Z,1.22
2019-06-01T04:45:54.698Z,1.90
2019-06-01T04:50:57.895Z,1.20
2019-06-01T04:53:29.426Z,1.20
2019-06-01T04:56:01.348Z,1.22
2019-06-01T04:58:33.054Z,1.30
2019-06-01T05:01:05.293Z,1.00
2019-06-01T05:03:36.830Z,1.50
2019-06-01T05:06:09.249Z,1.10
2019-06-01T05:08:41.059Z,1.37
2019-06-01T05:11:13.562Z,0.90
2019-06-01T05:16:16.640Z,1.10
2019-06-01T05:18:49.009Z,1.30
2019-06-01T05:21:21.465Z,1.15
2019-06-01T05:23:53.332Z,1.07
2019-06-01T05:26:24.855Z,1.37
2019-06-01T05:28:56.746Z,1.10
2019-06-01T05:31:28.979Z,1.00
2019-06-01T05:34:01.118Z,1.20
2019-06-01T05:36:33.312Z,1.15
2019-06-01T05:39:08.128Z,0.90
2019-06-01T05:41:40.344Z,1.22
2019-06-01T05:44:12.878Z,1.30
2019-06-01T05:46:44.757Z,1.10
2019-06-01T05:49:16.461Z,1.10
2019-06-01T05:51:47.987Z,1.02
2019-06-01T05:54:19.753Z,1.10
2019-06-01T05:59:22.339Z,6.03
2019-06-01T06:01:54.330Z,1.10
2019-06-01T06:04:26.303Z,1.00
2019-06-01T06:06:58.221Z,0.90
2019-06-01T06:09:30.299Z,1.22
2019-06-01T06:12:02.140Z,1.15
2019-06-01T06:14:34.299Z,1.07
2019-06-01T06:17:05.815Z,1.15
2019-06-01T06:19:37.339Z,1.30
2019-06-01T06:22:09.119Z,1.22
2019-06-01T06:24:41.298Z,1.10
2019-06-01T06:27:12.842Z,0.95
2019-06-01T06:29:44.780Z,1.07
2019-06-01T06:32:17.236Z,0.90
2019-06-01T06:34:49.346Z,0.90
2019-06-01T06:37:22.050Z,0.90
2019-06-01T06:39:53.768Z,0.90
2019-06-01T06:44:56.775Z,0.78
2019-06-01T06:47:28.382Z,1.20
2019-06-01T06:50:02.120Z,1.00
2019-06-01T06:52:33.850Z,0.85
2019-06-01T06:55:05.803Z,1.10
2019-06-01T06:57:37.378Z,0.82
2019-06-01T07:00:09.807Z,0.80
2019-06-01T07:02:41.661Z,1.02
2019-06-01T07:07:30.306Z,1.00
2019-06-01T07:10:05.272Z,1.20
2019-06-01T07:12:37.997Z,0.88
2019-06-01T07:15:09.798Z,1.27
2019-06-01T07:19:04.793Z,1.00
2019-06-01T07:21:40.316Z,1.00
2019-06-01T07:24:12.405Z,1.05
2019-06-01T07:26:53.342Z,1.00
2019-06-01T07:29:26.278Z,0.90
2019-06-01T07:31:58.374Z,0.90
2019-06-01T07:34:39.725Z,0.93
2019-06-01T07:37:10.328Z,0.90
2019-06-01T07:39:47.284Z,1.00
2019-06-01T07:42:23.034Z,1.00
2019-06-01T07:44:53.376Z,1.00
2019-06-01T07:47:25.374Z,1.37
2019-06-01T07:49:58.608Z,1.12
2019-06-01T07:55:06.643Z,1.00
2019-06-01T08:00:18.427Z,1.25
2019-06-01T08:02:53.627Z,1.02
2019-06-01T08:08:02.902Z,1.20
2019-06-01T08:10:39.759Z,0.93
2019-06-01T08:13:13.301Z,2.20
2019-06-01T08:15:48.360Z,1.30
2019-06-01T08:18:23.898Z,6.87
2019-06-01T08:20:55.810Z,3.80
2019-06-01T08:23:28.364Z,1.60
2019-06-01T08:26:01.757Z,2.17
2019-06-01T08:28:34.742Z,6.58
2019-06-01T08:31:08.187Z,13.50
2019-06-01T08:33:40.714Z,13.15
2019-06-01T08:38:49.357Z,4.92
2019-06-01T08:41:36.946Z,7.75
2019-06-01T08:44:12.105Z,3.40
2019-06-01T08:46:47.269Z,4.53
2019-06-01T08:49:22.036Z,4.33
2019-06-01T08:51:53.820Z,7.15
2019-06-01T08:54:28.118Z,4.75
2019-06-01T08:57:00.992Z,8.10
2019-06-01T08:59:32.772Z,6.58
2019-06-01T09:04:35.385Z,3.08
2019-06-01T09:07:10.153Z,4.05
2019-06-01T09:09:44.983Z,3.45
2019-06-01T09:12:16.770Z,6.85
2019-06-01T09:14:48.394Z,3.60
2019-06-01T09:17:20.079Z,9.35
2019-06-01T09:19:54.053Z,5.05
2019-06-01T09:22:27.441Z,5.92
2019-06-01T09:27:30.276Z,3.30
2019-06-01T09:30:02.043Z,5.72
2019-06-01T09:32:34.394Z,7.83
2019-06-01T09:35:07.017Z,4.35
2019-06-01T09:37:38.758Z,7.35
2019-06-01T09:42:43.316Z,2.60
2019-06-01T09:45:15.291Z,3.27
2019-06-01T09:47:47.599Z,2.80
2019-06-01T09:52:51.296Z,3.20
2019-06-01T09:55:22.789Z,4.62
2019-06-01T09:57:54.409Z,4.45
2019-06-01T10:00:26.477Z,5.62
2019-06-01T10:02:57.967Z,7.97
2019-06-01T10:05:30.315Z,5.92
2019-06-01T10:08:02.375Z,7.55
2019-06-01T10:10:34.007Z,4.78
2019-06-01T10:13:07.821Z,8.30
2019-06-01T10:15:40.349Z,6.10
2019-06-01T10:18:12.299Z,10.58
2019-06-01T10:20:45.045Z,6.97
2019-06-01T10:23:17.277Z,10.70
2019-06-01T10:25:49.298Z,10.23
2019-06-01T10:28:20.848Z,7.33
2019-06-01T10:30:52.605Z,3.30
2019-06-01T10:33:24.782Z,7.03
2019-06-01T10:35:56.442Z,12.35
2019-06-01T10:38:28.262Z,7.05
2019-06-01T10:41:00.302Z,5.37
2019-06-01T10:43:33.595Z,8.58
2019-06-01T10:46:05.699Z,6.60
2019-06-01T10:51:08.293Z,4.62
2019-06-01T10:53:41.154Z,9.48
2019-06-01T10:58:59.781Z,6.00
2019-06-01T11:01:17.801Z,6.58
2019-06-01T11:03:49.521Z,8.88
2019-06-01T11:06:36.286Z,6.10
2019-06-01T11:08:54.760Z,6.58
2019-06-01T11:13:57.306Z,4.25
2019-06-01T11:16:29.313Z,3.25
2019-06-01T11:19:01.341Z,5.55
2019-06-01T11:21:33.519Z,5.83
2019-06-01T11:26:37.650Z,3.60
2019-06-01T11:31:41.801Z,5.37
2019-06-01T11:34:14.056Z,3.20
2019-06-01T11:37:03.246Z,6.33
2019-06-01T11:39:19.782Z,7.75
2019-06-01T11:41:51.764Z,5.20
2019-06-01T11:46:54.298Z,5.65
2019-06-01T11:49:27.779Z,5.10
2019-06-01T11:51:59.502Z,3.30
2019-06-01T11:54:31.777Z,2.58
2019-06-01T11:59:35.301Z,2.37
2019-06-01T12:02:06.807Z,2.50
2019-06-01T12:04:39.719Z,2.77
2019-06-01T12:07:17.731Z,5.53
2019-06-01T12:09:46.051Z,3.12
2019-06-01T12:12:17.808Z,2.87
2019-06-01T12:14:49.334Z,2.27
2019-06-01T12:17:21.289Z,2.10
2019-06-01T12:19:52.849Z,2.12
2019-06-01T12:22:25.330Z,3.42
2019-06-01T12:24:57.291Z,1.87
2019-06-01T12:27:28.976Z,7.37
2019-06-01T12:30:00.760Z,4.67
2019-06-01T12:35:04.290Z,4.80
2019-06-01T12:37:55.061Z,4.30
2019-06-01T12:40:09.362Z,6.35
2019-06-01T12:42:41.507Z,4.33
2019-06-01T12:47:58.327Z,4.10
2019-06-01T12:50:27.771Z,4.87
2019-06-01T12:52:59.477Z,4.97
2019-06-01T12:55:31.233Z,6.28
2019-06-01T12:58:02.712Z,4.72
2019-06-01T13:03:07.810Z,5.80
2019-06-01T13:05:38.845Z,7.05
2019-06-01T13:08:10.734Z,5.03
2019-06-01T13:13:14.740Z,3.58
2019-06-01T13:18:17.222Z,3.75
2019-06-01T13:20:49.527Z,4.70
2019-06-01T13:25:52.269Z,4.37
2019-06-01T13:28:37.267Z,3.72
2019-06-01T13:30:57.286Z,5.87
2019-06-01T13:33:28.971Z,9.75
2019-06-01T13:36:00.532Z,2.45
2019-06-01T13:38:32.223Z,7.90
2019-06-01T13:41:03.778Z,3.45
2019-06-01T13:43:35.338Z,3.67
2019-06-01T13:46:07.404Z,8.25
2019-06-01T13:48:38.990Z,4.70
2019-06-01T13:51:11.226Z,3.15
2019-06-01T13:53:44.076Z,4.75
2019-06-01T13:56:15.787Z,3.67
2019-06-01T13:58:48.199Z,3.25
2019-06-01T14:01:19.950Z,3.37
2019-06-01T14:03:52.586Z,3.40
2019-06-01T14:06:25.704Z,2.92
2019-06-01T14:11:28.286Z,5.03
2019-06-01T14:13:59.793Z,5.15
2019-06-01T14:16:32.289Z,3.00
2019-06-01T14:19:06.765Z,5.28
2019-06-01T14:21:37.183Z,5.17
2019-06-01T14:24:10.222Z,2.72
2019-06-01T14:26:41.766Z,2.00
2019-06-01T14:29:13.318Z,3.12
2019-06-01T14:31:44.710Z,4.17
2019-06-01T14:34:16.289Z,4.35
2019-06-01T14:36:48.597Z,5.50
2019-06-01T14:39:20.600Z,2.22
2019-06-01T14:41:53.586Z,2.92
2019-06-01T14:49:28.875Z,3.98
2019-06-01T14:52:00.446Z,4.17
2019-06-01T14:54:32.277Z,2.75
2019-06-01T14:57:04.114Z,3.87
2019-06-01T14:59:35.723Z,2.67
2019-06-01T15:04:37.988Z,2.27
2019-06-01T15:07:09.774Z,3.58
2019-06-01T15:09:41.310Z,3.12
2019-06-01T15:12:13.366Z,2.00
2019-06-01T15:14:45.297Z,3.42
2019-06-01T15:17:16.786Z,3.50
2019-06-01T15:19:49.876Z,2.02
2019-06-01T15:22:21.619Z,4.28
2019-06-01T15:24:54.241Z,2.47
2019-06-01T15:27:26.228Z,3.70
2019-06-01T15:29:58.887Z,3.85
2019-06-01T15:32:30.678Z,3.27
2019-06-01T15:37:35.304Z,2.20
2019-06-01T15:40:07.794Z,1.67
2019-06-01T15:42:39.669Z,3.72
2019-06-01T15:45:11.405Z,2.80
2019-06-01T15:47:44.027Z,5.67
2019-06-01T15:50:16.019Z,1.82
2019-06-01T15:52:47.707Z,4.20
2019-06-01T15:57:50.362Z,2.35
2019-06-01T16:00:22.265Z,2.22
2019-06-01T16:02:54.832Z,5.55
2019-06-01T16:05:26.757Z,2.67
2019-06-01T16:10:29.364Z,2.62
2019-06-01T16:13:01.641Z,2.95
2019-06-01T16:15:33.736Z,2.58
2019-06-01T16:20:36.303Z,3.12
2019-06-01T16:23:07.826Z,3.90
2019-06-01T16:25:52.348Z,4.05
2019-06-01T16:28:19.571Z,4.33
2019-06-01T16:30:51.774Z,2.33
2019-06-01T16:35:54.934Z,2.70
2019-06-01T16:38:26.715Z,2.47
2019-06-01T16:40:59.195Z,3.50
2019-06-01T16:43:31.154Z,2.12
2019-06-01T16:46:03.847Z,5.05
2019-06-01T16:48:35.716Z,5.05
2019-06-01T16:53:38.610Z,5.33
2019-06-01T16:56:10.365Z,3.95
2019-06-01T16:58:42.382Z,3.77
2019-06-01T17:01:14.303Z,4.05
2019-06-01T17:03:46.717Z,3.20
2019-06-01T17:08:49.758Z,5.65
2019-06-01T17:13:52.368Z,4.90
2019-06-01T17:16:23.785Z,1.72
2019-06-01T17:18:56.878Z,5.45
2019-06-01T17:21:28.762Z,3.33
2019-06-01T17:24:01.382Z,2.85
2019-06-01T17:29:04.137Z,3.40
2019-06-01T17:31:36.360Z,2.65
2019-06-01T17:34:08.720Z,2.95
2019-06-01T17:36:51.485Z,3.58
2019-06-01T17:39:24.330Z,2.30
2019-06-01T17:41:55.920Z,1.92
2019-06-01T17:44:27.727Z,2.12
2019-06-01T17:49:31.696Z,2.00
2019-06-01T17:54:47.906Z,3.07
2019-06-01T17:57:19.874Z,2.47
2019-06-01T17:59:51.746Z,3.58
2019-06-01T18:02:24.140Z,2.20
2019-06-01T18:04:55.757Z,2.70
2019-06-01T18:12:28.523Z,2.62
2019-06-01T18:15:00.326Z,10.80
2019-06-01T18:17:32.818Z,4.33
2019-06-01T18:20:04.758Z,2.45
2019-06-01T18:22:36.417Z,2.05
2019-06-01T18:25:08.558Z,2.25
2019-06-01T18:30:12.731Z,2.70
2019-06-01T18:32:44.817Z,1.95
2019-06-01T18:35:19.645Z,1.87
2019-06-01T18:37:52.012Z,1.87
2019-06-01T18:40:24.770Z,2.22
2019-06-01T18:45:33.136Z,2.85
2019-06-01T18:48:06.106Z,1.52
2019-06-01T18:50:37.829Z,2.40
2019-06-01T18:53:12.530Z,2.83
2019-06-01T18:55:45.346Z,2.17
2019-06-01T19:01:02.061Z,2.57
2019-06-01T19:03:38.812Z,2.65
2019-06-01T19:06:11.667Z,3.08
2019-06-01T19:08:43.389Z,1.50
2019-06-01T19:11:29.521Z,1.40
2019-06-01T19:13:50.069Z,3.58
2019-06-01T19:16:22.268Z,1.67
2019-06-01T19:18:54.904Z,2.33
2019-06-01T19:21:26.778Z,1.75
2019-06-01T19:26:37.370Z,2.27
2019-06-01T19:29:11.371Z,2.20
2019-06-01T19:31:44.068Z,2.70
2019-06-01T19:34:17.205Z,1.82
2019-06-01T19:36:49.349Z,3.12
2019-06-01T19:39:21.747Z,1.55
2019-06-01T19:41:53.477Z,3.55
2019-06-01T19:44:26.021Z,1.70
2019-06-01T19:47:05.530Z,2.70
2019-06-01T19:52:08.830Z,3.10
2019-06-01T19:54:40.836Z,1.45
2019-06-01T19:57:17.957Z,3.75
2019-06-01T19:59:46.371Z,1.70
2019-06-01T20:02:29.578Z,2.12
2019-06-01T20:04:51.663Z,2.05
2019-06-01T20:09:54.782Z,1.50
2019-06-01T20:14:57.335Z,1.50
2019-06-01T20:17:29.531Z,1.40
2019-06-01T20:20:01.832Z,2.20
2019-06-01T20:22:33.482Z,1.87
2019-06-01T20:25:08.272Z,1.92
2019-06-01T20:27:41.280Z,1.80
2019-06-01T20:30:17.741Z,1.65
2019-06-01T20:32:49.594Z,1.55
2019-06-01T20:35:22.165Z,1.57
2019-06-01T20:37:54.314Z,1.65
2019-06-01T20:40:28.301Z,1.45
2019-06-01T20:43:00.377Z,1.92
2019-06-01T20:45:32.086Z,1.60
2019-06-01T20:48:06.912Z,1.67
2019-06-01T20:50:40.361Z,1.37
2019-06-01T20:53:14.477Z,1.72
2019-06-01T20:55:46.909Z,1.60
2019-06-01T20:58:21.486Z,1.57
2019-06-01T21:00:52.420Z,1.40
2019-06-01T21:03:24.522Z,1.30
2019-06-01T21:05:56.395Z,2.70
2019-06-01T21:08:28.312Z,1.87
2019-06-01T21:10:59.877Z,1.20
2019-06-01T21:13:31.993Z,1.60
2019-06-01T21:16:03.757Z,1.42
2019-06-01T21:21:06.402Z,2.90
2019-06-01T21:23:38.053Z,1.15
2019-06-01T21:26:10.294Z,2.12
2019-06-01T21:28:42.333Z,1.37
2019-06-01T21:31:14.980Z,1.45
2019-06-01T21:33:54.741Z,1.45
2019-06-01T21:38:57.907Z,1.52
2019-06-01T21:41:33.481Z,1.90
2019-06-01T21:44:05.740Z,1.75
2019-06-01T21:51:52.873Z,1.47
2019-06-01T21:54:31.161Z,1.25
2019-06-01T21:57:10.525Z,1.75
2019-06-01T21:59:45.694Z,1.60
2019-06-01T22:02:18.442Z,2.10
2019-06-01T22:07:23.264Z,1.60
2019-06-01T22:09:55.906Z,2.77
2019-06-01T22:12:28.323Z,2.47
2019-06-01T22:15:00.457Z,2.15
2019-06-01T22:17:32.577Z,1.60
2019-06-01T22:22:36.782Z,1.70
2019-06-01T22:25:08.607Z,1.67
2019-06-01T22:27:40.509Z,2.40
2019-06-01T22:30:12.500Z,1.77
2019-06-01T22:32:44.771Z,1.90
2019-06-01T22:37:48.775Z,1.52
2019-06-01T22:40:23.302Z,1.95
2019-06-01T22:42:54.769Z,1.90
2019-06-01T22:45:29.282Z,1.40
2019-06-01T22:48:02.325Z,1.50
2019-06-01T22:50:33.791Z,1.40
2019-06-01T22:53:05.304Z,1.43
2019-06-01T22:55:37.118Z,1.45
2019-06-01T22:58:08.661Z,1.70
2019-06-01T23:03:10.782Z,1.95
2019-06-01T23:05:42.718Z,1.45
2019-06-01T23:10:45.052Z,1.47
2019-06-01T23:13:16.304Z,1.67
2019-06-01T23:15:48.281Z,1.50
2019-06-01T23:18:20.051Z,1.55
2019-06-01T23:20:51.765Z,1.82
2019-06-01T23:25:54.333Z,1.50
2019-06-01T23:28:26.295Z,2.60
2019-06-01T23:30:58.751Z,1.60
2019-06-01T23:36:02.773Z,1.72
2019-06-01T23:38:34.265Z,1.70
2019-06-01T23:41:06.261Z,1.62
2019-06-01T23:43:37.814Z,1.80
2019-06-01T23:46:09.533Z,1.75
2019-06-01T23:48:41.302Z,1.70
2019-06-01T23:51:13.338Z,1.67
2019-06-01T23:53:45.249Z,1.60
2019-06-01T23:56:17.297Z,1.72
2019-06-01T23:58:48.710Z,1.52
